createdAt,value
2022-10-16T00:00:34.167Z,40.20
2022-10-16T00:04:14.032Z,43.40
2022-10-16T00:07:42.992Z,45.50
2022-10-16T00:11:12.955Z,40.20
2022-10-16T00:14:44.002Z,40.80
2022-10-16T00:18:16.549Z,37.20
2022-10-16T00:21:44.051Z,43.20
2022-10-16T00:25:12.649Z,40.20
2022-10-16T00:28:40.427Z,37.30
2022-10-16T00:32:07.543Z,40.10
2022-10-16T00:35:34.743Z,44.30
2022-10-16T00:39:02.650Z,39.10
2022-10-16T00:42:30.000Z,44.30
2022-10-16T00:45:56.746Z,43.30
2022-10-16T00:49:24.976Z,47.40
2022-10-16T00:52:53.894Z,49.40
2022-10-16T00:56:21.122Z,45.90
2022-10-16T00:59:48.536Z,44.60
2022-10-16T01:03:30.080Z,48.50
2022-10-16T01:07:08.356Z,44.70
2022-10-16T01:10:41.082Z,46.40
2022-10-16T01:14:13.853Z,45.80
2022-10-16T01:17:51.234Z,45.30
2022-10-16T01:21:24.583Z,48.80
2022-10-16T01:24:56.069Z,52.60
2022-10-16T01:28:26.866Z,59.00
2022-10-16T01:31:57.205Z,51.90
2022-10-16T01:35:29.753Z,55.00
2022-10-16T01:38:59.345Z,50.40
2022-10-16T01:42:31.510Z,46.50
2022-10-16T01:46:00.128Z,46.60
2022-10-16T01:49:30.379Z,44.70
2022-10-16T01:53:05.339Z,45.10
2022-10-16T01:56:33.888Z,43.20
2022-10-16T02:00:04.577Z,43.80
2022-10-16T02:03:40.635Z,47.00
2022-10-16T02:07:08.943Z,50.80
2022-10-16T02:10:37.154Z,52.60
2022-10-16T02:14:07.023Z,53.40
2022-10-16T02:17:33.927Z,48.20
2022-10-16T02:21:07.685Z,49.30
2022-10-16T02:24:39.123Z,48.20
2022-10-16T02:28:09.863Z,49.10
2022-10-16T02:31:43.647Z,47.50
2022-10-16T02:35:14.280Z,47.30
2022-10-16T02:38:43.572Z,45.10
2022-10-16T02:42:14.252Z,44.80
2022-10-16T02:45:41.100Z,46.30
2022-10-16T02:49:11.030Z,43.40
2022-10-16T02:52:38.387Z,47.30
2022-10-16T02:56:05.155Z,49.70
2022-10-16T02:59:32.102Z,49.40
2022-10-16T03:02:58.470Z,46.20
2022-10-16T03:06:27.729Z,46.60
2022-10-16T03:09:54.484Z,47.20
2022-10-16T03:13:23.147Z,46.30
2022-10-16T03:16:50.031Z,46.70
2022-10-16T03:20:17.183Z,48.40
2022-10-16T03:23:43.824Z,45.60
2022-10-16T03:27:11.096Z,45.80
2022-10-16T03:30:38.302Z,44.70
2022-10-16T03:34:05.395Z,39.50
2022-10-16T03:37:33.166Z,44.80
2022-10-16T03:40:59.575Z,44.90
2022-10-16T03:44:26.454Z,43.20
2022-10-16T03:47:53.133Z,45.50
2022-10-16T03:51:20.049Z,44.80
2022-10-16T03:54:46.805Z,44.60
2022-10-16T03:58:13.392Z,39.50
2022-10-16T04:01:39.999Z,38.40
2022-10-16T04:05:08.578Z,41.00
2022-10-16T04:08:36.195Z,36.90
2022-10-16T04:12:02.860Z,34.80
2022-10-16T04:15:29.750Z,35.30
2022-10-16T04:18:56.814Z,37.50
2022-10-16T04:22:24.013Z,36.40
2022-10-16T04:25:51.066Z,32.90
2022-10-16T04:29:17.769Z,30.80
2022-10-16T04:32:45.363Z,32.00
2022-10-16T04:36:12.935Z,34.30
2022-10-16T04:39:39.434Z,32.60
2022-10-16T04:43:06.072Z,34.50
2022-10-16T04:46:32.964Z,31.40
2022-10-16T04:50:02.279Z,31.30
2022-10-16T04:53:30.152Z,32.00
2022-10-16T04:56:57.096Z,33.00
2022-10-16T05:00:24.379Z,27.50
2022-10-16T05:03:51.482Z,28.20
2022-10-16T05:07:18.645Z,33.00
2022-10-16T05:10:47.243Z,31.00
2022-10-16T05:14:13.650Z,33.20
2022-10-16T05:17:42.612Z,28.30
2022-10-16T05:21:12.533Z,33.20
2022-10-16T05:24:39.139Z,30.50
2022-10-16T05:28:08.036Z,37.80
2022-10-16T05:31:34.879Z,36.60
2022-10-16T05:35:01.877Z,32.30
2022-10-16T05:38:29.550Z,38.00
2022-10-16T05:41:56.560Z,34.50
2022-10-16T05:45:23.023Z,35.50
2022-10-16T05:48:49.627Z,41.00
2022-10-16T05:52:16.599Z,35.40
2022-10-16T05:55:43.652Z,31.50
2022-10-16T05:59:10.558Z,32.30
2022-10-16T06:02:37.388Z,29.10
2022-10-16T06:06:12.511Z,34.80
2022-10-16T06:09:39.663Z,29.80
2022-10-16T06:13:09.625Z,35.90
2022-10-16T06:16:37.639Z,31.20
2022-10-16T06:20:04.279Z,33.60
2022-10-16T06:23:32.784Z,30.00
2022-10-16T06:26:59.891Z,28.20
2022-10-16T06:30:34.901Z,28.30
2022-10-16T06:34:02.916Z,30.80
2022-10-16T06:37:30.853Z,29.80
2022-10-16T06:40:58.819Z,26.70
2022-10-16T06:44:25.710Z,33.40
2022-10-16T06:47:52.487Z,28.60
2022-10-16T06:51:20.978Z,29.90
2022-10-16T06:54:50.944Z,27.80
2022-10-16T06:58:17.783Z,26.80
2022-10-16T07:01:44.264Z,27.20
2022-10-16T07:05:13.981Z,23.10
2022-10-16T07:08:42.567Z,23.80
2022-10-16T07:12:12.289Z,24.70
2022-10-16T07:15:39.286Z,29.10
2022-10-16T07:19:07.020Z,24.00
2022-10-16T07:22:33.958Z,23.20
2022-10-16T07:26:00.540Z,21.30
2022-10-16T07:29:28.315Z,24.10
2022-10-16T07:32:55.545Z,22.60
2022-10-16T07:36:23.553Z,23.60
2022-10-16T07:39:50.895Z,24.20
2022-10-16T07:43:18.171Z,22.00
2022-10-16T07:46:45.374Z,20.90
2022-10-16T07:50:12.547Z,18.70
2022-10-16T07:53:40.876Z,20.20
2022-10-16T07:57:07.570Z,22.10
2022-10-16T08:00:34.816Z,23.10
2022-10-16T08:04:01.655Z,20.60
2022-10-16T08:07:28.733Z,18.70
2022-10-16T08:10:56.363Z,17.20
2022-10-16T08:14:22.831Z,15.80
2022-10-16T08:18:00.926Z,17.40
2022-10-16T08:21:27.698Z,15.40
2022-10-16T08:24:54.042Z,16.20
2022-10-16T08:28:21.946Z,13.90
2022-10-16T08:31:49.840Z,13.70
2022-10-16T08:35:16.592Z,16.00
2022-10-16T08:38:43.964Z,14.40
2022-10-16T08:42:33.155Z,14.40
2022-10-16T08:46:23.845Z,14.90
2022-10-16T08:50:00.599Z,14.70
2022-10-16T08:53:32.832Z,13.30
2022-10-16T08:57:03.528Z,14.40
2022-10-16T09:00:31.508Z,13.30
2022-10-16T09:04:17.617Z,14.00
2022-10-16T09:07:51.925Z,13.90
2022-10-16T09:11:34.746Z,13.00
2022-10-16T09:15:21.937Z,14.10
2022-10-16T09:18:58.409Z,13.90
2022-10-16T09:22:29.324Z,14.70
2022-10-16T09:25:57.912Z,17.70
2022-10-16T09:29:26.440Z,15.20
2022-10-16T09:33:00.566Z,13.20
2022-10-16T09:36:29.737Z,14.10
2022-10-16T09:39:58.121Z,15.20
2022-10-16T09:43:29.060Z,12.80
2022-10-16T09:47:06.162Z,12.00
2022-10-16T09:50:33.841Z,11.30
2022-10-16T09:54:02.810Z,13.60
2022-10-16T09:57:31.355Z,13.00
2022-10-16T10:00:59.084Z,13.50
2022-10-16T10:04:29.609Z,13.50
2022-10-16T10:08:01.233Z,12.60
2022-10-16T10:11:46.759Z,12.20
2022-10-16T10:15:21.160Z,11.60
2022-10-16T10:18:48.954Z,11.30
2022-10-16T10:22:29.003Z,13.80
2022-10-16T10:26:02.637Z,13.50
2022-10-16T10:33:20.161Z,13.80
2022-10-16T10:36:55.946Z,12.70
2022-10-16T10:40:37.633Z,12.40
2022-10-16T10:44:23.139Z,14.60
2022-10-16T10:48:08.893Z,12.00
2022-10-16T10:51:43.210Z,11.60
2022-10-16T10:55:22.461Z,9.80
2022-10-16T10:59:11.528Z,13.40
2022-10-16T11:02:44.446Z,13.10
2022-10-16T11:06:15.466Z,12.00
2022-10-16T11:09:48.341Z,9.70
2022-10-16T11:13:26.197Z,12.20
2022-10-16T11:16:59.503Z,10.30
2022-10-16T11:20:32.004Z,10.90
2022-10-16T11:24:03.743Z,12.20
2022-10-16T11:27:42.048Z,11.50
2022-10-16T11:31:17.229Z,9.80
2022-10-16T11:34:52.449Z,12.40
2022-10-16T11:38:37.613Z,10.30
2022-10-16T11:42:11.452Z,10.20
2022-10-16T11:45:42.818Z,9.70
2022-10-16T11:49:16.415Z,10.40
2022-10-16T11:52:56.684Z,8.30
2022-10-16T11:56:35.796Z,7.60
2022-10-16T12:00:11.858Z,8.40
2022-10-16T12:03:50.667Z,10.70
2022-10-16T12:07:26.773Z,8.60
2022-10-16T12:10:56.703Z,8.30
2022-10-16T12:15:11.208Z,8.20
2022-10-16T12:18:28.529Z,14.00
2022-10-16T12:21:57.806Z,12.90
2022-10-16T12:25:31.076Z,11.00
2022-10-16T12:29:12.619Z,11.40
2022-10-16T12:32:46.814Z,10.10
2022-10-16T12:36:20.997Z,10.90
2022-10-16T12:39:53.181Z,9.20
2022-10-16T12:43:39.651Z,13.80
2022-10-16T12:47:27.134Z,10.30
2022-10-16T12:50:59.022Z,8.00
2022-10-16T12:54:32.940Z,8.70
2022-10-16T12:58:18.471Z,9.80
2022-10-16T13:02:04.500Z,9.50
2022-10-16T13:05:48.771Z,7.60
2022-10-16T13:09:42.556Z,9.30
2022-10-16T13:17:00.493Z,8.50
2022-10-16T13:24:10.181Z,7.60
2022-10-16T13:27:47.337Z,8.00
2022-10-16T13:31:22.393Z,6.60
2022-10-16T13:34:54.656Z,7.30
2022-10-16T13:38:23.476Z,14.20
2022-10-16T13:42:09.021Z,9.50
2022-10-16T13:45:37.299Z,8.90
2022-10-16T13:49:05.761Z,9.50
2022-10-16T13:52:33.938Z,11.70
2022-10-16T13:56:02.610Z,8.80
2022-10-16T13:59:38.746Z,9.60
2022-10-16T14:03:15.444Z,6.90
2022-10-16T14:06:47.730Z,6.90
2022-10-16T14:10:25.326Z,8.40
2022-10-16T14:13:53.642Z,7.50
2022-10-16T14:17:24.725Z,9.60
2022-10-16T14:20:52.294Z,7.00
2022-10-16T14:24:29.711Z,7.30
2022-10-16T14:28:04.882Z,6.10
2022-10-16T14:31:34.284Z,8.90
2022-10-16T14:35:01.103Z,11.10
2022-10-16T14:38:28.964Z,7.70
2022-10-16T14:41:59.396Z,12.10
2022-10-16T14:45:30.394Z,13.00
2022-10-16T14:49:03.366Z,4.80
2022-10-16T14:52:29.964Z,6.00
2022-10-16T14:55:56.800Z,8.80
2022-10-16T14:59:28.966Z,10.70
2022-10-16T15:02:56.405Z,7.70
2022-10-16T15:06:25.256Z,7.30
2022-10-16T15:09:54.304Z,10.30
2022-10-16T15:13:21.891Z,8.20
2022-10-16T15:16:50.247Z,20.50
2022-10-16T15:20:23.645Z,21.10
2022-10-16T15:23:54.431Z,19.60
2022-10-16T15:27:21.389Z,18.60
2022-10-16T15:30:49.734Z,19.50
2022-10-16T15:34:17.907Z,21.30
2022-10-16T15:37:47.596Z,17.00
2022-10-16T15:41:19.540Z,14.00
2022-10-16T15:44:46.319Z,9.00
2022-10-16T15:48:16.440Z,9.50
2022-10-16T15:51:45.678Z,9.10
2022-10-16T15:55:19.486Z,12.30
2022-10-16T15:58:46.844Z,20.30
2022-10-16T16:02:14.039Z,23.70
2022-10-16T16:05:46.631Z,21.80
2022-10-16T16:09:13.789Z,23.70
2022-10-16T16:12:41.923Z,25.60
2022-10-16T16:16:12.472Z,18.30
2022-10-16T16:19:45.189Z,21.10
2022-10-16T16:23:16.891Z,20.90
2022-10-16T16:26:47.135Z,18.40
2022-10-16T16:30:23.623Z,21.40
2022-10-16T16:33:55.322Z,17.50
2022-10-16T16:37:25.518Z,26.70
2022-10-16T16:40:56.215Z,18.40
2022-10-16T16:44:24.220Z,19.10
2022-10-16T16:47:51.193Z,20.30
2022-10-16T16:51:20.995Z,25.30
2022-10-16T16:54:53.154Z,37.30
2022-10-16T16:58:24.419Z,35.70
2022-10-16T17:01:56.687Z,39.50
2022-10-16T17:05:25.214Z,44.30
2022-10-16T17:08:53.491Z,39.10
2022-10-16T17:12:25.213Z,53.10
2022-10-16T17:15:54.140Z,57.50
2022-10-16T17:19:22.954Z,55.40
2022-10-16T17:22:54.054Z,51.10
2022-10-16T17:26:23.464Z,54.10
2022-10-16T17:29:57.920Z,40.70
2022-10-16T17:33:26.481Z,37.20
2022-10-16T17:36:56.316Z,31.10
2022-10-16T17:40:33.219Z,37.00
2022-10-16T17:44:05.160Z,29.70
2022-10-16T17:47:34.638Z,27.20
2022-10-16T17:51:02.329Z,30.70
2022-10-16T17:54:29.789Z,32.50
2022-10-16T17:58:00.127Z,31.50
2022-10-16T18:01:32.151Z,24.60
2022-10-16T18:04:59.000Z,27.80
2022-10-16T18:08:31.162Z,23.70
2022-10-16T18:12:02.205Z,22.00
2022-10-16T18:15:30.966Z,21.40
2022-10-16T18:19:01.212Z,24.50
2022-10-16T18:22:31.176Z,20.60
2022-10-16T18:25:58.735Z,20.10
2022-10-16T18:29:28.959Z,26.10
2022-10-16T18:32:56.109Z,24.90
2022-10-16T18:36:25.499Z,25.80
2022-10-16T18:39:55.215Z,19.30
2022-10-16T18:43:22.553Z,18.40
2022-10-16T18:46:51.290Z,26.60
2022-10-16T18:50:24.521Z,20.40
2022-10-16T18:53:59.853Z,24.50
2022-10-16T18:57:30.284Z,18.90
2022-10-16T19:00:57.441Z,22.40
2022-10-16T19:04:24.713Z,24.50
2022-10-16T19:08:01.873Z,20.00
2022-10-16T19:11:34.832Z,23.10
2022-10-16T19:15:06.345Z,18.10
2022-10-16T19:18:40.764Z,17.60
2022-10-16T19:22:28.640Z,17.10
2022-10-16T19:26:01.614Z,19.90
2022-10-16T19:29:33.443Z,20.50
2022-10-16T19:33:05.502Z,21.90
2022-10-16T19:36:42.362Z,25.40
2022-10-16T19:40:16.450Z,22.90
2022-10-16T19:43:43.949Z,30.10
2022-10-16T19:47:11.922Z,28.80
2022-10-16T19:50:48.730Z,33.00
2022-10-16T19:54:18.329Z,41.10
2022-10-16T19:57:46.269Z,44.70
2022-10-16T20:01:15.488Z,54.30
2022-10-16T20:04:44.246Z,52.30
2022-10-16T20:08:12.548Z,51.20
2022-10-16T20:11:39.891Z,47.40
2022-10-16T20:15:08.858Z,49.40
2022-10-16T20:18:36.741Z,46.20
2022-10-16T20:22:05.044Z,36.40
2022-10-16T20:25:35.664Z,40.10
2022-10-16T20:29:02.574Z,38.00
2022-10-16T20:32:31.327Z,37.30
2022-10-16T20:35:58.687Z,40.70
2022-10-16T20:39:25.404Z,34.60
2022-10-16T20:42:52.645Z,36.30
2022-10-16T20:46:23.018Z,35.00
2022-10-16T20:49:50.758Z,40.30
2022-10-16T20:53:20.165Z,33.10
2022-10-16T20:56:47.054Z,34.10
2022-10-16T21:00:15.658Z,29.30
2022-10-16T21:03:43.211Z,27.60
2022-10-16T21:07:10.552Z,28.80
2022-10-16T21:10:37.133Z,29.50
2022-10-16T21:14:06.477Z,32.10
2022-10-16T21:17:34.265Z,31.20
2022-10-16T21:21:01.926Z,29.60
2022-10-16T21:24:29.098Z,27.40
2022-10-16T21:27:55.852Z,26.30
2022-10-16T21:31:23.819Z,26.80
2022-10-16T21:34:51.269Z,30.10
2022-10-16T21:38:18.718Z,27.00
2022-10-16T21:41:47.693Z,25.60
2022-10-16T21:45:15.751Z,28.50
2022-10-16T21:48:44.346Z,26.80
2022-10-16T21:52:16.910Z,29.30
2022-10-16T21:55:43.787Z,23.70
2022-10-16T21:59:12.063Z,30.10
2022-10-16T22:02:40.221Z,25.80
2022-10-16T22:06:09.403Z,27.70
2022-10-16T22:09:36.467Z,29.90
2022-10-16T22:13:03.510Z,30.20
2022-10-16T22:16:30.289Z,29.00
2022-10-16T22:20:06.133Z,32.00
2022-10-16T22:23:49.998Z,31.20
2022-10-16T22:27:17.311Z,30.30
2022-10-16T22:30:44.652Z,29.40
2022-10-16T22:34:15.354Z,31.60
2022-10-16T22:37:41.995Z,29.30
2022-10-16T22:41:10.553Z,28.00
2022-10-16T22:44:39.738Z,30.70
2022-10-16T22:48:07.652Z,34.00
2022-10-16T22:51:35.239Z,29.30
2022-10-16T22:55:02.132Z,25.50
2022-10-16T22:58:29.923Z,27.00
2022-10-16T23:01:56.304Z,25.10
2022-10-16T23:05:23.906Z,28.90
2022-10-16T23:08:54.098Z,28.00
2022-10-16T23:12:22.055Z,24.50
2022-10-16T23:15:51.901Z,26.50
2022-10-16T23:19:19.368Z,23.60
2022-10-16T23:22:46.549Z,28.20
2022-10-16T23:26:15.194Z,22.40
2022-10-16T23:29:42.167Z,25.10
2022-10-16T23:33:09.003Z,24.40
2022-10-16T23:36:36.435Z,35.20
2022-10-16T23:40:04.143Z,24.10
2022-10-16T23:43:31.139Z,24.20
2022-10-16T23:46:58.169Z,24.80
2022-10-16T23:50:25.126Z,24.40
2022-10-16T23:53:53.993Z,21.10
2022-10-16T23:57:21.595Z,24.60
